sensor_id;sensor_type;location;lat;lon;timestamp;P1;durP1;ratioP1;P2;durP2;ratioP2
9860;SDS011;4969;52.304;4.968;2023-11-19T00:01:04;20.07;;;4.17;;
9860;SDS011;4969;52.304;4.968;2023-11-19T00:03:32;18.13;;;4.37;;
9860;SDS011;4969;52.304;4.968;2023-11-19T00:06:00;20.33;;;4.73;;
9860;SDS011;4969;52.304;4.968;2023-11-19T00:08:27;19.00;;;4.50;;
9860;SDS011;4969;52.304;4.968;2023-11-19T00:10:54;16.63;;;4.37;;
9860;SDS011;4969;52.304;4.968;2023-11-19T00:13:21;20.90;;;4.73;;
9860;SDS011;4969;52.304;4.968;2023-11-19T00:15:48;19.47;;;4.47;;
9860;SDS011;4969;52.304;4.968;2023-11-19T00:18:14;13.10;;;3.80;;
9860;SDS011;4969;52.304;4.968;2023-11-19T00:20:42;17.63;;;4.33;;
9860;SDS011;4969;52.304;4.968;2023-11-19T00:23:09;17.13;;;4.33;;
9860;SDS011;4969;52.304;4.968;2023-11-19T00:25:36;24.20;;;4.83;;
9860;SDS011;4969;52.304;4.968;2023-11-19T00:28:03;17.40;;;4.43;;
9860;SDS011;4969;52.304;4.968;2023-11-19T00:30:30;17.43;;;4.30;;
9860;SDS011;4969;52.304;4.968;2023-11-19T00:32:57;21.43;;;5.17;;
9860;SDS011;4969;52.304;4.968;2023-11-19T00:35:23;21.00;;;4.65;;
9860;SDS011;4969;52.304;4.968;2023-11-19T00:37:51;16.98;;;4.43;;
9860;SDS011;4969;52.304;4.968;2023-11-19T00:40:19;22.42;;;4.85;;
9860;SDS011;4969;52.304;4.968;2023-11-19T00:42:48;17.02;;;4.32;;
9860;SDS011;4969;52.304;4.968;2023-11-19T00:45:14;20.00;;;5.20;;
9860;SDS011;4969;52.304;4.968;2023-11-19T00:47:41;16.27;;;4.57;;
9860;SDS011;4969;52.304;4.968;2023-11-19T00:50:08;18.10;;;4.68;;
9860;SDS011;4969;52.304;4.968;2023-11-19T00:52:36;14.55;;;4.45;;
9860;SDS011;4969;52.304;4.968;2023-11-19T00:55:05;17.85;;;4.70;;
9860;SDS011;4969;52.304;4.968;2023-11-19T00:57:32;24.23;;;5.18;;
9860;SDS011;4969;52.304;4.968;2023-11-19T00:59:59;18.77;;;4.28;;
9860;SDS011;4969;52.304;4.968;2023-11-19T01:02:25;17.75;;;4.45;;
9860;SDS011;4969;52.304;4.968;2023-11-19T01:04:52;19.98;;;5.18;;
9860;SDS011;4969;52.304;4.968;2023-11-19T01:07:18;24.50;;;5.35;;
9860;SDS011;4969;52.304;4.968;2023-11-19T01:09:47;15.82;;;4.05;;
9860;SDS011;4969;52.304;4.968;2023-11-19T01:12:14;18.75;;;4.57;;
9860;SDS011;4969;52.304;4.968;2023-11-19T01:14:41;26.45;;;5.15;;
9860;SDS011;4969;52.304;4.968;2023-11-19T01:17:08;22.77;;;4.70;;
9860;SDS011;4969;52.304;4.968;2023-11-19T01:19:34;20.75;;;5.18;;
9860;SDS011;4969;52.304;4.968;2023-11-19T01:22:01;21.58;;;5.20;;
9860;SDS011;4969;52.304;4.968;2023-11-19T01:24:27;21.08;;;5.05;;
9860;SDS011;4969;52.304;4.968;2023-11-19T01:26:56;19.55;;;5.50;;
9860;SDS011;4969;52.304;4.968;2023-11-19T01:29:26;30.60;;;6.00;;
9860;SDS011;4969;52.304;4.968;2023-11-19T01:31:52;24.20;;;6.85;;
9860;SDS011;4969;52.304;4.968;2023-11-19T01:34:19;20.98;;;5.32;;
9860;SDS011;4969;52.304;4.968;2023-11-19T01:36:46;24.00;;;5.95;;
9860;SDS011;4969;52.304;4.968;2023-11-19T01:39:13;20.98;;;5.60;;
9860;SDS011;4969;52.304;4.968;2023-11-19T01:41:41;15.02;;;4.57;;
9860;SDS011;4969;52.304;4.968;2023-11-19T01:44:07;24.20;;;5.88;;
9860;SDS011;4969;52.304;4.968;2023-11-19T01:46:36;23.42;;;5.88;;
9860;SDS011;4969;52.304;4.968;2023-11-19T01:49:04;24.40;;;6.57;;
9860;SDS011;4969;52.304;4.968;2023-11-19T01:51:31;31.42;;;6.82;;
9860;SDS011;4969;52.304;4.968;2023-11-19T01:53:59;27.83;;;6.50;;
9860;SDS011;4969;52.304;4.968;2023-11-19T01:56:25;24.95;;;5.63;;
9860;SDS011;4969;52.304;4.968;2023-11-19T01:58:53;24.00;;;5.63;;
9860;SDS011;4969;52.304;4.968;2023-11-19T02:01:20;26.02;;;5.53;;
9860;SDS011;4969;52.304;4.968;2023-11-19T02:03:48;22.10;;;4.80;;
9860;SDS011;4969;52.304;4.968;2023-11-19T02:06:15;24.35;;;5.82;;
9860;SDS011;4969;52.304;4.968;2023-11-19T02:08:41;24.95;;;5.85;;
9860;SDS011;4969;52.304;4.968;2023-11-19T02:11:08;28.13;;;6.00;;
9860;SDS011;4969;52.304;4.968;2023-11-19T02:13:36;27.65;;;5.90;;
9860;SDS011;4969;52.304;4.968;2023-11-19T02:16:04;27.90;;;6.40;;
9860;SDS011;4969;52.304;4.968;2023-11-19T02:18:32;20.40;;;4.85;;
9860;SDS011;4969;52.304;4.968;2023-11-19T02:21:00;22.93;;;6.10;;
9860;SDS011;4969;52.304;4.968;2023-11-19T02:23:27;27.23;;;6.17;;
9860;SDS011;4969;52.304;4.968;2023-11-19T02:26:05;24.50;;;5.37;;
9860;SDS011;4969;52.304;4.968;2023-11-19T02:28:42;22.52;;;6.13;;
9860;SDS011;4969;52.304;4.968;2023-11-19T02:31:09;25.13;;;5.77;;
9860;SDS011;4969;52.304;4.968;2023-11-19T02:33:36;25.63;;;5.90;;
9860;SDS011;4969;52.304;4.968;2023-11-19T02:36:03;24.75;;;5.88;;
9860;SDS011;4969;52.304;4.968;2023-11-19T02:38:30;27.33;;;6.28;;
9860;SDS011;4969;52.304;4.968;2023-11-19T02:40:57;24.33;;;6.03;;
9860;SDS011;4969;52.304;4.968;2023-11-19T02:43:23;21.75;;;5.38;;
9860;SDS011;4969;52.304;4.968;2023-11-19T02:45:51;31.45;;;6.53;;
9860;SDS011;4969;52.304;4.968;2023-11-19T02:48:20;23.90;;;6.43;;
9860;SDS011;4969;52.304;4.968;2023-11-19T02:50:47;25.67;;;6.13;;
9860;SDS011;4969;52.304;4.968;2023-11-19T02:53:13;24.00;;;5.35;;
9860;SDS011;4969;52.304;4.968;2023-11-19T02:55:41;31.97;;;7.80;;
9860;SDS011;4969;52.304;4.968;2023-11-19T02:58:13;26.30;;;6.70;;
9860;SDS011;4969;52.304;4.968;2023-11-19T03:00:45;29.00;;;7.13;;
9860;SDS011;4969;52.304;4.968;2023-11-19T03:03:18;27.87;;;6.53;;
9860;SDS011;4969;52.304;4.968;2023-11-19T03:05:47;30.77;;;6.57;;
9860;SDS011;4969;52.304;4.968;2023-11-19T03:08:14;22.27;;;6.20;;
9860;SDS011;4969;52.304;4.968;2023-11-19T03:10:41;27.60;;;6.67;;
9860;SDS011;4969;52.304;4.968;2023-11-19T03:15:38;27.73;;;7.00;;
9860;SDS011;4969;52.304;4.968;2023-11-19T03:18:04;30.10;;;6.83;;
9860;SDS011;4969;52.304;4.968;2023-11-19T03:20:32;24.67;;;5.73;;
9860;SDS011;4969;52.304;4.968;2023-11-19T03:22:59;30.53;;;6.50;;
9860;SDS011;4969;52.304;4.968;2023-11-19T03:25:26;34.80;;;7.03;;
9860;SDS011;4969;52.304;4.968;2023-11-19T03:27:58;29.30;;;6.90;;
9860;SDS011;4969;52.304;4.968;2023-11-19T03:30:25;33.20;;;7.20;;
9860;SDS011;4969;52.304;4.968;2023-11-19T03:32:51;22.20;;;5.70;;
9860;SDS011;4969;52.304;4.968;2023-11-19T03:35:18;26.87;;;6.17;;
9860;SDS011;4969;52.304;4.968;2023-11-19T03:37:45;25.63;;;6.10;;
9860;SDS011;4969;52.304;4.968;2023-11-19T03:40:12;31.50;;;7.77;;
9860;SDS011;4969;52.304;4.968;2023-11-19T03:42:39;25.83;;;6.43;;
9860;SDS011;4969;52.304;4.968;2023-11-19T03:45:06;27.37;;;7.27;;
9860;SDS011;4969;52.304;4.968;2023-11-19T03:47:33;26.20;;;5.87;;
9860;SDS011;4969;52.304;4.968;2023-11-19T03:50:00;27.90;;;6.60;;
9860;SDS011;4969;52.304;4.968;2023-11-19T03:52:27;24.23;;;5.77;;
9860;SDS011;4969;52.304;4.968;2023-11-19T03:54:55;27.27;;;6.70;;
9860;SDS011;4969;52.304;4.968;2023-11-19T03:57:22;31.30;;;6.97;;
9860;SDS011;4969;52.304;4.968;2023-11-19T03:59:49;26.07;;;6.07;;
9860;SDS011;4969;52.304;4.968;2023-11-19T04:02:15;28.30;;;6.93;;
9860;SDS011;4969;52.304;4.968;2023-11-19T04:04:42;25.20;;;6.03;;
9860;SDS011;4969;52.304;4.968;2023-11-19T04:07:09;28.40;;;6.50;;
9860;SDS011;4969;52.304;4.968;2023-11-19T04:09:35;28.30;;;6.50;;
9860;SDS011;4969;52.304;4.968;2023-11-19T04:12:04;28.83;;;6.77;;
9860;SDS011;4969;52.304;4.968;2023-11-19T04:14:31;33.93;;;6.90;;
9860;SDS011;4969;52.304;4.968;2023-11-19T04:16:58;30.77;;;6.83;;
9860;SDS011;4969;52.304;4.968;2023-11-19T04:19:24;24.83;;;5.40;;
9860;SDS011;4969;52.304;4.968;2023-11-19T04:21:51;32.70;;;7.37;;
9860;SDS011;4969;52.304;4.968;2023-11-19T04:24:17;31.90;;;7.17;;
9860;SDS011;4969;52.304;4.968;2023-11-19T04:26:44;34.33;;;7.33;;
9860;SDS011;4969;52.304;4.968;2023-11-19T04:29:14;35.70;;;7.33;;
9860;SDS011;4969;52.304;4.968;2023-11-19T04:31:42;27.93;;;6.30;;
9860;SDS011;4969;52.304;4.968;2023-11-19T04:34:09;29.23;;;6.70;;
9860;SDS011;4969;52.304;4.968;2023-11-19T04:36:36;30.93;;;6.83;;
9860;SDS011;4969;52.304;4.968;2023-11-19T04:39:04;22.93;;;5.27;;
9860;SDS011;4969;52.304;4.968;2023-11-19T04:41:34;35.87;;;7.27;;
9860;SDS011;4969;52.304;4.968;2023-11-19T04:44:01;29.90;;;6.90;;
9860;SDS011;4969;52.304;4.968;2023-11-19T04:46:29;29.73;;;6.80;;
9860;SDS011;4969;52.304;4.968;2023-11-19T04:48:55;30.97;;;7.00;;
9860;SDS011;4969;52.304;4.968;2023-11-19T04:51:22;29.07;;;7.03;;
9860;SDS011;4969;52.304;4.968;2023-11-19T04:53:48;28.00;;;6.90;;
9860;SDS011;4969;52.304;4.968;2023-11-19T04:56:15;32.07;;;6.53;;
9860;SDS011;4969;52.304;4.968;2023-11-19T04:58:44;28.27;;;6.90;;
9860;SDS011;4969;52.304;4.968;2023-11-19T05:01:13;28.33;;;6.93;;
9860;SDS011;4969;52.304;4.968;2023-11-19T05:03:43;28.50;;;6.80;;
9860;SDS011;4969;52.304;4.968;2023-11-19T05:06:10;25.43;;;5.70;;
9860;SDS011;4969;52.304;4.968;2023-11-19T05:08:36;31.07;;;6.73;;
9860;SDS011;4969;52.304;4.968;2023-11-19T05:11:03;28.87;;;6.57;;
9860;SDS011;4969;52.304;4.968;2023-11-19T05:13:31;29.80;;;6.73;;
9860;SDS011;4969;52.304;4.968;2023-11-19T05:15:57;24.60;;;5.70;;
9860;SDS011;4969;52.304;4.968;2023-11-19T05:18:24;30.03;;;6.97;;
9860;SDS011;4969;52.304;4.968;2023-11-19T05:20:51;26.20;;;6.27;;
9860;SDS011;4969;52.304;4.968;2023-11-19T05:23:18;25.93;;;5.70;;
9860;SDS011;4969;52.304;4.968;2023-11-19T05:25:45;28.00;;;6.50;;
9860;SDS011;4969;52.304;4.968;2023-11-19T05:28:12;32.70;;;6.83;;
9860;SDS011;4969;52.304;4.968;2023-11-19T05:30:39;27.20;;;7.03;;
9860;SDS011;4969;52.304;4.968;2023-11-19T05:33:06;23.93;;;5.30;;
9860;SDS011;4969;52.304;4.968;2023-11-19T05:35:33;27.27;;;6.57;;
9860;SDS011;4969;52.304;4.968;2023-11-19T05:38:01;28.10;;;6.67;;
9860;SDS011;4969;52.304;4.968;2023-11-19T05:40:28;29.10;;;7.07;;
9860;SDS011;4969;52.304;4.968;2023-11-19T05:42:55;24.80;;;6.43;;
9860;SDS011;4969;52.304;4.968;2023-11-19T05:45:21;24.77;;;6.37;;
9860;SDS011;4969;52.304;4.968;2023-11-19T05:47:48;32.53;;;7.00;;
9860;SDS011;4969;52.304;4.968;2023-11-19T05:50:14;30.07;;;7.33;;
9860;SDS011;4969;52.304;4.968;2023-11-19T05:52:41;30.63;;;6.70;;
9860;SDS011;4969;52.304;4.968;2023-11-19T05:55:09;26.20;;;6.90;;
9860;SDS011;4969;52.304;4.968;2023-11-19T05:57:36;34.10;;;6.80;;
9860;SDS011;4969;52.304;4.968;2023-11-19T06:00:03;31.97;;;6.03;;
9860;SDS011;4969;52.304;4.968;2023-11-19T06:02:33;28.77;;;6.53;;
9860;SDS011;4969;52.304;4.968;2023-11-19T06:05:02;37.23;;;7.47;;
9860;SDS011;4969;52.304;4.968;2023-11-19T06:07:30;21.60;;;5.43;;
9860;SDS011;4969;52.304;4.968;2023-11-19T06:09:57;26.63;;;6.43;;
9860;SDS011;4969;52.304;4.968;2023-11-19T06:12:25;31.07;;;6.87;;
9860;SDS011;4969;52.304;4.968;2023-11-19T06:14:52;30.70;;;6.93;;
9860;SDS011;4969;52.304;4.968;2023-11-19T06:17:19;28.57;;;6.40;;
9860;SDS011;4969;52.304;4.968;2023-11-19T06:19:45;26.97;;;6.93;;
9860;SDS011;4969;52.304;4.968;2023-11-19T06:22:12;29.43;;;6.90;;
9860;SDS011;4969;52.304;4.968;2023-11-19T06:24:39;27.97;;;6.20;;
9860;SDS011;4969;52.304;4.968;2023-11-19T06:27:05;27.73;;;6.87;;
9860;SDS011;4969;52.304;4.968;2023-11-19T06:29:36;28.23;;;6.03;;
9860;SDS011;4969;52.304;4.968;2023-11-19T06:32:03;34.20;;;7.13;;
9860;SDS011;4969;52.304;4.968;2023-11-19T06:34:31;28.67;;;7.20;;
9860;SDS011;4969;52.304;4.968;2023-11-19T06:36:58;23.27;;;6.60;;
9860;SDS011;4969;52.304;4.968;2023-11-19T06:39:24;25.57;;;5.97;;
9860;SDS011;4969;52.304;4.968;2023-11-19T06:41:51;29.33;;;6.77;;
9860;SDS011;4969;52.304;4.968;2023-11-19T06:44:18;28.87;;;6.50;;
9860;SDS011;4969;52.304;4.968;2023-11-19T06:46:46;32.03;;;7.13;;
9860;SDS011;4969;52.304;4.968;2023-11-19T06:49:14;26.17;;;6.57;;
9860;SDS011;4969;52.304;4.968;2023-11-19T06:51:41;27.90;;;6.33;;
9860;SDS011;4969;52.304;4.968;2023-11-19T06:54:09;29.00;;;6.33;;
9860;SDS011;4969;52.304;4.968;2023-11-19T06:56:35;28.73;;;7.27;;
9860;SDS011;4969;52.304;4.968;2023-11-19T06:59:02;27.47;;;6.20;;
9860;SDS011;4969;52.304;4.968;2023-11-19T07:01:30;27.47;;;6.97;;
9860;SDS011;4969;52.304;4.968;2023-11-19T07:04:02;26.07;;;5.87;;
9860;SDS011;4969;52.304;4.968;2023-11-19T07:06:33;28.07;;;5.97;;
9860;SDS011;4969;52.304;4.968;2023-11-19T07:09:00;29.73;;;6.77;;
9860;SDS011;4969;52.304;4.968;2023-11-19T07:11:34;24.27;;;5.87;;
9860;SDS011;4969;52.304;4.968;2023-11-19T07:14:01;28.17;;;6.37;;
9860;SDS011;4969;52.304;4.968;2023-11-19T07:16:28;24.87;;;5.67;;
9860;SDS011;4969;52.304;4.968;2023-11-19T07:18:54;30.77;;;7.07;;
9860;SDS011;4969;52.304;4.968;2023-11-19T07:21:22;28.37;;;6.80;;
9860;SDS011;4969;52.304;4.968;2023-11-19T07:23:49;29.10;;;7.07;;
9860;SDS011;4969;52.304;4.968;2023-11-19T07:26:16;27.83;;;6.17;;
9860;SDS011;4969;52.304;4.968;2023-11-19T07:28:43;28.70;;;5.77;;
9860;SDS011;4969;52.304;4.968;2023-11-19T07:31:10;32.73;;;6.60;;
9860;SDS011;4969;52.304;4.968;2023-11-19T07:33:39;24.07;;;5.10;;
9860;SDS011;4969;52.304;4.968;2023-11-19T07:36:07;28.70;;;7.40;;
9860;SDS011;4969;52.304;4.968;2023-11-19T07:38:35;26.10;;;5.77;;
9860;SDS011;4969;52.304;4.968;2023-11-19T07:41:03;34.57;;;7.23;;
9860;SDS011;4969;52.304;4.968;2023-11-19T07:43:34;30.83;;;6.43;;
9860;SDS011;4969;52.304;4.968;2023-11-19T07:46:00;32.47;;;7.00;;
9860;SDS011;4969;52.304;4.968;2023-11-19T07:48:28;25.77;;;6.30;;
9860;SDS011;4969;52.304;4.968;2023-11-19T07:50:55;25.37;;;5.80;;
9860;SDS011;4969;52.304;4.968;2023-11-19T07:53:22;25.30;;;6.33;;
9860;SDS011;4969;52.304;4.968;2023-11-19T07:55:50;24.23;;;5.73;;
9860;SDS011;4969;52.304;4.968;2023-11-19T07:58:16;21.23;;;5.17;;
9860;SDS011;4969;52.304;4.968;2023-11-19T08:00:43;28.13;;;6.27;;
9860;SDS011;4969;52.304;4.968;2023-11-19T08:03:09;25.67;;;5.57;;
9860;SDS011;4969;52.304;4.968;2023-11-19T08:05:36;27.63;;;6.30;;
9860;SDS011;4969;52.304;4.968;2023-11-19T08:08:02;23.53;;;6.33;;
9860;SDS011;4969;52.304;4.968;2023-11-19T08:10:29;26.23;;;6.10;;
9860;SDS011;4969;52.304;4.968;2023-11-19T08:12:59;28.17;;;6.50;;
9860;SDS011;4969;52.304;4.968;2023-11-19T08:15:26;26.37;;;6.37;;
9860;SDS011;4969;52.304;4.968;2023-11-19T08:17:53;30.57;;;6.73;;
9860;SDS011;4969;52.304;4.968;2023-11-19T08:20:20;28.60;;;6.37;;
9860;SDS011;4969;52.304;4.968;2023-11-19T08:22:46;26.57;;;6.30;;
9860;SDS011;4969;52.304;4.968;2023-11-19T08:25:13;26.20;;;6.13;;
9860;SDS011;4969;52.304;4.968;2023-11-19T08:27:40;27.93;;;6.87;;
9860;SDS011;4969;52.304;4.968;2023-11-19T08:30:08;22.20;;;5.50;;
9860;SDS011;4969;52.304;4.968;2023-11-19T08:32:35;27.37;;;6.70;;
9860;SDS011;4969;52.304;4.968;2023-11-19T08:35:02;23.00;;;5.53;;
9860;SDS011;4969;52.304;4.968;2023-11-19T08:37:29;27.50;;;6.23;;
9860;SDS011;4969;52.304;4.968;2023-11-19T08:39:56;24.43;;;5.97;;
9860;SDS011;4969;52.304;4.968;2023-11-19T08:42:22;21.70;;;6.67;;
9860;SDS011;4969;52.304;4.968;2023-11-19T08:44:49;27.20;;;6.77;;
9860;SDS011;4969;52.304;4.968;2023-11-19T08:47:20;23.63;;;6.77;;
9860;SDS011;4969;52.304;4.968;2023-11-19T08:49:47;31.43;;;6.97;;
9860;SDS011;4969;52.304;4.968;2023-11-19T08:52:16;21.87;;;6.07;;
9860;SDS011;4969;52.304;4.968;2023-11-19T08:54:43;30.27;;;6.33;;
9860;SDS011;4969;52.304;4.968;2023-11-19T08:57:10;25.53;;;5.20;;
9860;SDS011;4969;52.304;4.968;2023-11-19T08:59:36;23.83;;;5.67;;
9860;SDS011;4969;52.304;4.968;2023-11-19T09:02:03;27.70;;;6.07;;
9860;SDS011;4969;52.304;4.968;2023-11-19T09:04:31;21.77;;;5.50;;
9860;SDS011;4969;52.304;4.968;2023-11-19T09:06:58;26.33;;;6.27;;
9860;SDS011;4969;52.304;4.968;2023-11-19T09:09:25;29.27;;;6.33;;
9860;SDS011;4969;52.304;4.968;2023-11-19T09:11:51;27.23;;;7.10;;
9860;SDS011;4969;52.304;4.968;2023-11-19T09:14:18;29.50;;;6.43;;
9860;SDS011;4969;52.304;4.968;2023-11-19T09:16:49;25.63;;;6.53;;
9860;SDS011;4969;52.304;4.968;2023-11-19T09:19:15;25.60;;;6.37;;
9860;SDS011;4969;52.304;4.968;2023-11-19T09:21:43;23.97;;;5.87;;
9860;SDS011;4969;52.304;4.968;2023-11-19T09:24:10;32.67;;;7.20;;
9860;SDS011;4969;52.304;4.968;2023-11-19T09:26:36;29.97;;;6.80;;
9860;SDS011;4969;52.304;4.968;2023-11-19T09:29:05;26.93;;;5.90;;
9860;SDS011;4969;52.304;4.968;2023-11-19T09:31:32;24.33;;;6.30;;
9860;SDS011;4969;52.304;4.968;2023-11-19T09:33:59;31.67;;;6.87;;
9860;SDS011;4969;52.304;4.968;2023-11-19T09:36:26;31.53;;;7.07;;
9860;SDS011;4969;52.304;4.968;2023-11-19T09:38:54;29.63;;;6.53;;
9860;SDS011;4969;52.304;4.968;2023-11-19T09:41:20;30.37;;;6.30;;
9860;SDS011;4969;52.304;4.968;2023-11-19T09:43:47;27.70;;;6.30;;
9860;SDS011;4969;52.304;4.968;2023-11-19T09:46:14;26.77;;;6.37;;
9860;SDS011;4969;52.304;4.968;2023-11-19T09:48:42;24.50;;;5.93;;
9860;SDS011;4969;52.304;4.968;2023-11-19T09:51:10;24.23;;;5.70;;
9860;SDS011;4969;52.304;4.968;2023-11-19T09:53:36;22.15;;;5.47;;
9860;SDS011;4969;52.304;4.968;2023-11-19T09:56:05;24.67;;;5.70;;
9860;SDS011;4969;52.304;4.968;2023-11-19T09:58:34;22.97;;;5.60;;
9860;SDS011;4969;52.304;4.968;2023-11-19T10:01:01;27.33;;;6.22;;
9860;SDS011;4969;52.304;4.968;2023-11-19T10:03:32;27.50;;;6.43;;
9860;SDS011;4969;52.304;4.968;2023-11-19T10:06:00;26.23;;;6.33;;
9860;SDS011;4969;52.304;4.968;2023-11-19T10:08:28;29.10;;;7.07;;
9860;SDS011;4969;52.304;4.968;2023-11-19T10:10:55;26.98;;;6.90;;
9860;SDS011;4969;52.304;4.968;2023-11-19T10:13:27;27.10;;;5.53;;
9860;SDS011;4969;52.304;4.968;2023-11-19T10:15:54;27.70;;;6.03;;
9860;SDS011;4969;52.304;4.968;2023-11-19T10:18:23;24.27;;;5.73;;
9860;SDS011;4969;52.304;4.968;2023-11-19T10:20:51;28.03;;;6.23;;
9860;SDS011;4969;52.304;4.968;2023-11-19T10:23:17;24.15;;;6.28;;
9860;SDS011;4969;52.304;4.968;2023-11-19T10:25:44;26.23;;;6.53;;
9860;SDS011;4969;52.304;4.968;2023-11-19T10:28:11;28.73;;;6.43;;
9860;SDS011;4969;52.304;4.968;2023-11-19T10:30:39;17.53;;;4.23;;
9860;SDS011;4969;52.304;4.968;2023-11-19T10:33:08;20.30;;;5.10;;
9860;SDS011;4969;52.304;4.968;2023-11-19T10:35:36;25.43;;;5.17;;
9860;SDS011;4969;52.304;4.968;2023-11-19T10:38:16;25.63;;;5.50;;
9860;SDS011;4969;52.304;4.968;2023-11-19T10:40:43;21.03;;;4.83;;
9860;SDS011;4969;52.304;4.968;2023-11-19T10:43:09;20.70;;;5.03;;
9860;SDS011;4969;52.304;4.968;2023-11-19T10:45:36;21.20;;;5.03;;
9860;SDS011;4969;52.304;4.968;2023-11-19T10:48:05;21.03;;;5.67;;
9860;SDS011;4969;52.304;4.968;2023-11-19T10:50:33;23.97;;;5.47;;
9860;SDS011;4969;52.304;4.968;2023-11-19T10:53:00;27.03;;;5.93;;
9860;SDS011;4969;52.304;4.968;2023-11-19T10:55:28;22.67;;;5.47;;
9860;SDS011;4969;52.304;4.968;2023-11-19T10:57:59;22.77;;;5.37;;
9860;SDS011;4969;52.304;4.968;2023-11-19T11:00:28;21.23;;;5.33;;
9860;SDS011;4969;52.304;4.968;2023-11-19T11:02:59;23.23;;;5.37;;
9860;SDS011;4969;52.304;4.968;2023-11-19T11:05:28;21.03;;;5.20;;
9860;SDS011;4969;52.304;4.968;2023-11-19T11:07:58;16.50;;;4.13;;
9860;SDS011;4969;52.304;4.968;2023-11-19T11:10:26;17.00;;;4.57;;
9860;SDS011;4969;52.304;4.968;2023-11-19T11:12:54;22.23;;;5.63;;
9860;SDS011;4969;52.304;4.968;2023-11-19T11:15:26;25.30;;;5.73;;
9860;SDS011;4969;52.304;4.968;2023-11-19T11:17:54;21.33;;;5.37;;
9860;SDS011;4969;52.304;4.968;2023-11-19T11:20:26;22.80;;;5.30;;
9860;SDS011;4969;52.304;4.968;2023-11-19T11:22:57;19.27;;;5.27;;
9860;SDS011;4969;52.304;4.968;2023-11-19T11:25:37;21.57;;;4.90;;
9860;SDS011;4969;52.304;4.968;2023-11-19T11:28:16;18.00;;;4.90;;
9860;SDS011;4969;52.304;4.968;2023-11-19T11:30:55;26.37;;;6.40;;
9860;SDS011;4969;52.304;4.968;2023-11-19T11:33:36;21.97;;;5.60;;
9860;SDS011;4969;52.304;4.968;2023-11-19T11:36:19;20.80;;;5.27;;
9860;SDS011;4969;52.304;4.968;2023-11-19T11:38:50;23.63;;;5.70;;
9860;SDS011;4969;52.304;4.968;2023-11-19T11:41:18;22.33;;;5.40;;
9860;SDS011;4969;52.304;4.968;2023-11-19T11:43:46;22.50;;;5.23;;
9860;SDS011;4969;52.304;4.968;2023-11-19T11:49:22;26.13;;;5.73;;
9860;SDS011;4969;52.304;4.968;2023-11-19T11:51:57;20.00;;;5.10;;
9860;SDS011;4969;52.304;4.968;2023-11-19T11:54:29;21.67;;;5.00;;
9860;SDS011;4969;52.304;4.968;2023-11-19T11:57:09;18.47;;;5.10;;
9860;SDS011;4969;52.304;4.968;2023-11-19T11:59:37;23.40;;;5.60;;
9860;SDS011;4969;52.304;4.968;2023-11-19T12:02:14;22.17;;;4.70;;
9860;SDS011;4969;52.304;4.968;2023-11-19T12:04:42;19.30;;;5.17;;
9860;SDS011;4969;52.304;4.968;2023-11-19T12:07:11;18.87;;;5.10;;
9860;SDS011;4969;52.304;4.968;2023-11-19T12:09:41;19.57;;;4.83;;
9860;SDS011;4969;52.304;4.968;2023-11-19T12:12:17;29.77;;;6.10;;
9860;SDS011;4969;52.304;4.968;2023-11-19T12:15:04;18.77;;;4.80;;
9860;SDS011;4969;52.304;4.968;2023-11-19T12:17:42;18.83;;;5.27;;
9860;SDS011;4969;52.304;4.968;2023-11-19T12:20:10;19.07;;;4.77;;
9860;SDS011;4969;52.304;4.968;2023-11-19T12:22:37;17.98;;;5.05;;
9860;SDS011;4969;52.304;4.968;2023-11-19T12:25:06;21.73;;;5.10;;
9860;SDS011;4969;52.304;4.968;2023-11-19T12:27:33;19.07;;;5.30;;
9860;SDS011;4969;52.304;4.968;2023-11-19T12:30:00;22.27;;;5.53;;
9860;SDS011;4969;52.304;4.968;2023-11-19T12:32:36;23.33;;;5.30;;
9860;SDS011;4969;52.304;4.968;2023-11-19T12:35:04;18.13;;;5.10;;
9860;SDS011;4969;52.304;4.968;2023-11-19T12:37:31;21.33;;;4.87;;
9860;SDS011;4969;52.304;4.968;2023-11-19T12:39:57;18.57;;;5.23;;
9860;SDS011;4969;52.304;4.968;2023-11-19T12:42:35;16.92;;;4.80;;
9860;SDS011;4969;52.304;4.968;2023-11-19T12:45:02;19.27;;;4.57;;
9860;SDS011;4969;52.304;4.968;2023-11-19T12:47:30;18.37;;;4.93;;
9860;SDS011;4969;52.304;4.968;2023-11-19T12:49:57;19.47;;;4.90;;
9860;SDS011;4969;52.304;4.968;2023-11-19T12:52:24;16.50;;;4.33;;
9860;SDS011;4969;52.304;4.968;2023-11-19T12:54:51;19.17;;;5.07;;
9860;SDS011;4969;52.304;4.968;2023-11-19T12:57:18;16.67;;;4.63;;
9860;SDS011;4969;52.304;4.968;2023-11-19T12:59:55;15.60;;;3.70;;
9860;SDS011;4969;52.304;4.968;2023-11-19T13:02:22;17.90;;;4.53;;
9860;SDS011;4969;52.304;4.968;2023-11-19T13:04:49;16.63;;;5.20;;
9860;SDS011;4969;52.304;4.968;2023-11-19T13:07:20;16.37;;;4.07;;
9860;SDS011;4969;52.304;4.968;2023-11-19T13:09:47;17.60;;;4.90;;
9860;SDS011;4969;52.304;4.968;2023-11-19T13:12:13;20.60;;;4.93;;
9860;SDS011;4969;52.304;4.968;2023-11-19T13:14:41;20.17;;;4.97;;
9860;SDS011;4969;52.304;4.968;2023-11-19T13:17:13;23.77;;;5.00;;
9860;SDS011;4969;52.304;4.968;2023-11-19T13:19:40;22.10;;;5.63;;
9860;SDS011;4969;52.304;4.968;2023-11-19T13:22:07;17.90;;;4.90;;
9860;SDS011;4969;52.304;4.968;2023-11-19T13:24:33;19.97;;;5.50;;
9860;SDS011;4969;52.304;4.968;2023-11-19T13:27:00;18.23;;;4.70;;
9860;SDS011;4969;52.304;4.968;2023-11-19T13:29:27;23.67;;;5.30;;
9860;SDS011;4969;52.304;4.968;2023-11-19T13:31:53;19.20;;;4.37;;
9860;SDS011;4969;52.304;4.968;2023-11-19T13:34:21;26.02;;;6.25;;
9860;SDS011;4969;52.304;4.968;2023-11-19T13:36:48;23.57;;;5.60;;
9860;SDS011;4969;52.304;4.968;2023-11-19T13:39:14;21.37;;;5.07;;
9860;SDS011;4969;52.304;4.968;2023-11-19T13:41:47;22.23;;;5.40;;
9860;SDS011;4969;52.304;4.968;2023-11-19T13:44:15;21.87;;;5.63;;
9860;SDS011;4969;52.304;4.968;2023-11-19T13:46:41;25.87;;;5.70;;
9860;SDS011;4969;52.304;4.968;2023-11-19T13:49:10;27.63;;;5.40;;
9860;SDS011;4969;52.304;4.968;2023-11-19T13:51:38;22.87;;;6.03;;
9860;SDS011;4969;52.304;4.968;2023-11-19T13:54:05;21.73;;;5.27;;
9860;SDS011;4969;52.304;4.968;2023-11-19T13:56:32;20.40;;;4.63;;
9860;SDS011;4969;52.304;4.968;2023-11-19T13:58:58;30.07;;;6.17;;
9860;SDS011;4969;52.304;4.968;2023-11-19T14:01:25;20.20;;;4.93;;
9860;SDS011;4969;52.304;4.968;2023-11-19T14:03:52;21.10;;;5.17;;
9860;SDS011;4969;52.304;4.968;2023-11-19T14:06:19;20.30;;;5.23;;
9860;SDS011;4969;52.304;4.968;2023-11-19T14:08:47;22.30;;;5.50;;
9860;SDS011;4969;52.304;4.968;2023-11-19T14:11:13;20.17;;;4.43;;
9860;SDS011;4969;52.304;4.968;2023-11-19T14:13:40;16.47;;;4.40;;
9860;SDS011;4969;52.304;4.968;2023-11-19T14:16:07;20.53;;;4.80;;
9860;SDS011;4969;52.304;4.968;2023-11-19T14:18:34;20.13;;;4.83;;
9860;SDS011;4969;52.304;4.968;2023-11-19T14:21:01;22.17;;;4.60;;
9860;SDS011;4969;52.304;4.968;2023-11-19T14:23:28;19.00;;;4.70;;
9860;SDS011;4969;52.304;4.968;2023-11-19T14:25:56;24.00;;;4.82;;
9860;SDS011;4969;52.304;4.968;2023-11-19T14:28:23;19.23;;;4.97;;
9860;SDS011;4969;52.304;4.968;2023-11-19T14:30:51;21.60;;;4.70;;
9860;SDS011;4969;52.304;4.968;2023-11-19T14:33:21;23.45;;;5.55;;
9860;SDS011;4969;52.304;4.968;2023-11-19T14:35:48;25.92;;;6.45;;
9860;SDS011;4969;52.304;4.968;2023-11-19T14:38:15;28.10;;;6.03;;
9860;SDS011;4969;52.304;4.968;2023-11-19T14:40:41;24.30;;;5.30;;
9860;SDS011;4969;52.304;4.968;2023-11-19T14:43:09;22.70;;;5.67;;
9860;SDS011;4969;52.304;4.968;2023-11-19T14:45:36;26.83;;;5.85;;
9860;SDS011;4969;52.304;4.968;2023-11-19T14:48:03;23.47;;;5.63;;
9860;SDS011;4969;52.304;4.968;2023-11-19T14:50:30;24.60;;;6.37;;
9860;SDS011;4969;52.304;4.968;2023-11-19T14:52:56;26.87;;;6.23;;
9860;SDS011;4969;52.304;4.968;2023-11-19T14:55:23;30.77;;;6.60;;
9860;SDS011;4969;52.304;4.968;2023-11-19T14:57:51;21.08;;;5.93;;
9860;SDS011;4969;52.304;4.968;2023-11-19T15:00:19;25.75;;;6.10;;
9860;SDS011;4969;52.304;4.968;2023-11-19T15:02:46;26.33;;;6.68;;
9860;SDS011;4969;52.304;4.968;2023-11-19T15:05:12;24.88;;;5.97;;
9860;SDS011;4969;52.304;4.968;2023-11-19T15:07:39;27.88;;;6.72;;
9860;SDS011;4969;52.304;4.968;2023-11-19T15:10:06;23.58;;;5.50;;